sensor_id;sensor_type;location;lat;lon;timestamp;P1;durP1;ratioP1;P2;durP2;ratioP2
38117;SDS011;23928;47.562;7.508;2022-12-08T00:02:06;20.93;;;11.57;;
38117;SDS011;23928;47.562;7.508;2022-12-08T00:04:31;18.47;;;10.67;;
38117;SDS011;23928;47.562;7.508;2022-12-08T00:07:17;23.03;;;11.60;;
38117;SDS011;23928;47.562;7.508;2022-12-08T00:10:01;21.77;;;11.37;;
38117;SDS011;23928;47.562;7.508;2022-12-08T00:12:27;26.07;;;13.30;;
38117;SDS011;23928;47.562;7.508;2022-12-08T00:14:52;27.90;;;12.33;;
38117;SDS011;23928;47.562;7.508;2022-12-08T00:17:18;23.53;;;13.37;;
38117;SDS011;23928;47.562;7.508;2022-12-08T00:19:44;19.80;;;11.80;;
38117;SDS011;23928;47.562;7.508;2022-12-08T00:22:10;19.60;;;11.13;;
38117;SDS011;23928;47.562;7.508;2022-12-08T00:24:37;21.90;;;11.60;;
38117;SDS011;23928;47.562;7.508;2022-12-08T00:27:04;20.00;;;11.47;;
38117;SDS011;23928;47.562;7.508;2022-12-08T00:29:31;18.80;;;10.73;;
38117;SDS011;23928;47.562;7.508;2022-12-08T00:31:56;22.60;;;11.30;;
38117;SDS011;23928;47.562;7.508;2022-12-08T00:34:22;25.07;;;11.87;;
38117;SDS011;23928;47.562;7.508;2022-12-08T00:36:48;26.57;;;13.97;;
38117;SDS011;23928;47.562;7.508;2022-12-08T00:39:14;28.93;;;14.60;;
38117;SDS011;23928;47.562;7.508;2022-12-08T00:41:41;24.63;;;12.43;;
38117;SDS011;23928;47.562;7.508;2022-12-08T00:44:25;32.13;;;15.80;;
38117;SDS011;23928;47.562;7.508;2022-12-08T00:46:51;28.67;;;15.27;;
38117;SDS011;23928;47.562;7.508;2022-12-08T00:49:16;35.83;;;17.63;;
38117;SDS011;23928;47.562;7.508;2022-12-08T00:51:42;41.00;;;19.93;;
38117;SDS011;23928;47.562;7.508;2022-12-08T00:54:08;33.13;;;16.47;;
38117;SDS011;23928;47.562;7.508;2022-12-08T00:56:35;37.20;;;17.13;;
38117;SDS011;23928;47.562;7.508;2022-12-08T00:59:02;36.17;;;17.53;;
38117;SDS011;23928;47.562;7.508;2022-12-08T01:01:29;37.00;;;17.37;;
38117;SDS011;23928;47.562;7.508;2022-12-08T01:03:54;33.97;;;18.00;;
38117;SDS011;23928;47.562;7.508;2022-12-08T01:06:20;30.50;;;15.50;;
38117;SDS011;23928;47.562;7.508;2022-12-08T01:08:46;30.37;;;14.80;;
38117;SDS011;23928;47.562;7.508;2022-12-08T01:11:12;29.07;;;15.53;;
38117;SDS011;23928;47.562;7.508;2022-12-08T01:13:42;28.10;;;13.90;;
38117;SDS011;23928;47.562;7.508;2022-12-08T01:16:09;22.80;;;12.63;;
38117;SDS011;23928;47.562;7.508;2022-12-08T01:18:42;22.80;;;12.67;;
38117;SDS011;23928;47.562;7.508;2022-12-08T01:21:08;23.07;;;12.53;;
38117;SDS011;23928;47.562;7.508;2022-12-08T01:23:33;24.03;;;13.27;;
38117;SDS011;23928;47.562;7.508;2022-12-08T01:26:00;24.67;;;13.27;;
38117;SDS011;23928;47.562;7.508;2022-12-08T01:28:29;21.10;;;12.90;;
38117;SDS011;23928;47.562;7.508;2022-12-08T01:30:56;21.00;;;12.20;;
38117;SDS011;23928;47.562;7.508;2022-12-08T01:33:22;21.33;;;11.80;;
38117;SDS011;23928;47.562;7.508;2022-12-08T01:35:48;21.87;;;12.43;;
38117;SDS011;23928;47.562;7.508;2022-12-08T01:38:14;20.43;;;12.03;;
38117;SDS011;23928;47.562;7.508;2022-12-08T01:40:39;23.43;;;12.03;;
38117;SDS011;23928;47.562;7.508;2022-12-08T01:43:05;26.43;;;14.13;;
38117;SDS011;23928;47.562;7.508;2022-12-08T01:45:33;29.60;;;15.43;;
38117;SDS011;23928;47.562;7.508;2022-12-08T01:47:59;34.63;;;16.53;;
38117;SDS011;23928;47.562;7.508;2022-12-08T01:50:29;33.57;;;15.23;;
38117;SDS011;23928;47.562;7.508;2022-12-08T01:52:56;34.27;;;16.27;;
38117;SDS011;23928;47.562;7.508;2022-12-08T01:55:27;36.20;;;15.37;;
38117;SDS011;23928;47.562;7.508;2022-12-08T01:58:10;30.90;;;15.80;;
38117;SDS011;23928;47.562;7.508;2022-12-08T02:00:39;26.80;;;13.83;;
38117;SDS011;23928;47.562;7.508;2022-12-08T02:03:06;23.63;;;12.13;;
38117;SDS011;23928;47.562;7.508;2022-12-08T02:05:37;23.40;;;11.80;;
38117;SDS011;23928;47.562;7.508;2022-12-08T02:08:06;20.90;;;11.27;;
38117;SDS011;23928;47.562;7.508;2022-12-08T02:10:34;19.87;;;12.07;;
38117;SDS011;23928;47.562;7.508;2022-12-08T02:13:02;17.23;;;10.63;;
38117;SDS011;23928;47.562;7.508;2022-12-08T02:15:31;18.57;;;10.10;;
38117;SDS011;23928;47.562;7.508;2022-12-08T02:26:50;18.80;;;10.30;;
38117;SDS011;23928;47.562;7.508;2022-12-08T02:38:18;18.23;;;10.27;;
38117;SDS011;23928;47.562;7.508;2022-12-08T02:40:54;19.37;;;10.33;;
38117;SDS011;23928;47.562;7.508;2022-12-08T02:43:43;15.87;;;9.57;;
38117;SDS011;23928;47.562;7.508;2022-12-08T02:46:16;16.67;;;9.37;;
38117;SDS011;23928;47.562;7.508;2022-12-08T02:48:53;18.43;;;9.90;;
38117;SDS011;23928;47.562;7.508;2022-12-08T02:51:21;21.50;;;10.40;;
38117;SDS011;23928;47.562;7.508;2022-12-08T02:53:46;16.57;;;9.67;;
38117;SDS011;23928;47.562;7.508;2022-12-08T02:56:34;20.00;;;9.53;;
38117;SDS011;23928;47.562;7.508;2022-12-08T03:04:25;18.00;;;9.50;;
38117;SDS011;23928;47.562;7.508;2022-12-08T03:12:16;13.97;;;8.67;;
38117;SDS011;23928;47.562;7.508;2022-12-08T03:14:49;16.43;;;9.27;;
38117;SDS011;23928;47.562;7.508;2022-12-08T03:17:19;18.83;;;9.60;;
38117;SDS011;23928;47.562;7.508;2022-12-08T03:19:48;16.83;;;8.93;;
38117;SDS011;23928;47.562;7.508;2022-12-08T03:22:15;18.70;;;9.40;;
38117;SDS011;23928;47.562;7.508;2022-12-08T03:24:44;17.60;;;9.40;;
38117;SDS011;23928;47.562;7.508;2022-12-08T03:27:19;16.63;;;8.67;;
38117;SDS011;23928;47.562;7.508;2022-12-08T03:29:47;15.13;;;8.93;;
38117;SDS011;23928;47.562;7.508;2022-12-08T03:35:06;15.00;;;9.23;;
38117;SDS011;23928;47.562;7.508;2022-12-08T03:37:35;17.57;;;9.33;;
38117;SDS011;23928;47.562;7.508;2022-12-08T03:40:02;18.13;;;9.17;;
38117;SDS011;23928;47.562;7.508;2022-12-08T03:42:29;17.97;;;8.77;;
38117;SDS011;23928;47.562;7.508;2022-12-08T03:44:55;16.33;;;9.00;;
38117;SDS011;23928;47.562;7.508;2022-12-08T03:47:20;17.20;;;8.90;;
38117;SDS011;23928;47.562;7.508;2022-12-08T03:49:46;19.30;;;8.57;;
38117;SDS011;23928;47.562;7.508;2022-12-08T03:52:11;15.20;;;8.70;;
38117;SDS011;23928;47.562;7.508;2022-12-08T03:54:37;19.70;;;10.13;;
38117;SDS011;23928;47.562;7.508;2022-12-08T03:57:02;19.23;;;10.70;;
38117;SDS011;23928;47.562;7.508;2022-12-08T03:59:28;16.17;;;9.33;;
38117;SDS011;23928;47.562;7.508;2022-12-08T04:01:54;19.27;;;10.17;;
38117;SDS011;23928;47.562;7.508;2022-12-08T04:04:19;18.73;;;9.77;;
38117;SDS011;23928;47.562;7.508;2022-12-08T04:06:45;19.53;;;10.30;;
38117;SDS011;23928;47.562;7.508;2022-12-08T04:09:11;17.27;;;9.33;;
38117;SDS011;23928;47.562;7.508;2022-12-08T04:11:37;16.10;;;9.37;;
38117;SDS011;23928;47.562;7.508;2022-12-08T04:14:02;17.23;;;9.37;;
38117;SDS011;23928;47.562;7.508;2022-12-08T04:16:28;16.60;;;10.00;;
38117;SDS011;23928;47.562;7.508;2022-12-08T04:18:54;19.17;;;9.93;;
38117;SDS011;23928;47.562;7.508;2022-12-08T04:21:19;17.00;;;9.43;;
38117;SDS011;23928;47.562;7.508;2022-12-08T04:23:45;20.13;;;10.17;;
38117;SDS011;23928;47.562;7.508;2022-12-08T04:26:11;17.37;;;10.77;;
38117;SDS011;23928;47.562;7.508;2022-12-08T04:28:37;19.90;;;10.73;;
38117;SDS011;23928;47.562;7.508;2022-12-08T04:31:03;16.97;;;10.07;;
38117;SDS011;23928;47.562;7.508;2022-12-08T04:33:30;17.90;;;9.83;;
38117;SDS011;23928;47.562;7.508;2022-12-08T04:35:55;17.93;;;10.00;;
38117;SDS011;23928;47.562;7.508;2022-12-08T04:38:21;22.33;;;11.37;;
38117;SDS011;23928;47.562;7.508;2022-12-08T04:40:46;20.57;;;10.77;;
38117;SDS011;23928;47.562;7.508;2022-12-08T04:43:12;25.80;;;12.97;;
38117;SDS011;23928;47.562;7.508;2022-12-08T04:45:38;21.97;;;11.87;;
38117;SDS011;23928;47.562;7.508;2022-12-08T04:48:05;23.70;;;12.40;;
38117;SDS011;23928;47.562;7.508;2022-12-08T04:50:31;25.10;;;12.87;;
38117;SDS011;23928;47.562;7.508;2022-12-08T04:52:56;18.10;;;10.20;;
38117;SDS011;23928;47.562;7.508;2022-12-08T04:55:22;22.47;;;11.33;;
38117;SDS011;23928;47.562;7.508;2022-12-08T04:57:47;19.37;;;10.47;;
38117;SDS011;23928;47.562;7.508;2022-12-08T05:00:14;19.27;;;11.00;;
38117;SDS011;23928;47.562;7.508;2022-12-08T05:02:39;22.67;;;11.53;;
38117;SDS011;23928;47.562;7.508;2022-12-08T05:05:05;24.03;;;11.97;;
38117;SDS011;23928;47.562;7.508;2022-12-08T05:07:31;23.60;;;11.63;;
38117;SDS011;23928;47.562;7.508;2022-12-08T05:09:57;20.40;;;11.50;;
38117;SDS011;23928;47.562;7.508;2022-12-08T05:12:23;19.60;;;11.17;;
38117;SDS011;23928;47.562;7.508;2022-12-08T05:14:49;21.77;;;11.90;;
38117;SDS011;23928;47.562;7.508;2022-12-08T05:17:15;17.20;;;9.80;;
38117;SDS011;23928;47.562;7.508;2022-12-08T05:19:41;22.57;;;11.03;;
38117;SDS011;23928;47.562;7.508;2022-12-08T05:22:06;20.37;;;11.00;;
38117;SDS011;23928;47.562;7.508;2022-12-08T05:24:32;24.20;;;11.33;;
38117;SDS011;23928;47.562;7.508;2022-12-08T05:26:58;19.83;;;10.40;;
38117;SDS011;23928;47.562;7.508;2022-12-08T05:29:23;20.13;;;10.47;;
38117;SDS011;23928;47.562;7.508;2022-12-08T05:31:49;19.13;;;10.60;;
38117;SDS011;23928;47.562;7.508;2022-12-08T05:34:14;21.23;;;10.80;;
38117;SDS011;23928;47.562;7.508;2022-12-08T05:36:40;22.13;;;11.70;;
38117;SDS011;23928;47.562;7.508;2022-12-08T05:39:06;17.90;;;11.07;;
38117;SDS011;23928;47.562;7.508;2022-12-08T05:41:31;22.17;;;11.40;;
38117;SDS011;23928;47.562;7.508;2022-12-08T05:43:57;26.10;;;12.23;;
38117;SDS011;23928;47.562;7.508;2022-12-08T05:46:22;18.63;;;10.30;;
38117;SDS011;23928;47.562;7.508;2022-12-08T05:48:48;18.80;;;10.53;;
38117;SDS011;23928;47.562;7.508;2022-12-08T05:51:18;28.53;;;11.43;;
38117;SDS011;23928;47.562;7.508;2022-12-08T05:53:47;19.80;;;11.20;;
38117;SDS011;23928;47.562;7.508;2022-12-08T05:56:14;23.43;;;12.20;;
38117;SDS011;23928;47.562;7.508;2022-12-08T05:58:39;26.83;;;12.10;;
38117;SDS011;23928;47.562;7.508;2022-12-08T06:01:05;23.50;;;12.13;;
38117;SDS011;23928;47.562;7.508;2022-12-08T06:03:31;28.13;;;12.50;;
38117;SDS011;23928;47.562;7.508;2022-12-08T06:05:57;25.80;;;13.67;;
38117;SDS011;23928;47.562;7.508;2022-12-08T06:08:23;25.53;;;12.77;;
38117;SDS011;23928;47.562;7.508;2022-12-08T06:10:48;24.73;;;12.07;;
38117;SDS011;23928;47.562;7.508;2022-12-08T06:13:14;25.03;;;12.83;;
38117;SDS011;23928;47.562;7.508;2022-12-08T06:15:40;27.30;;;14.00;;
38117;SDS011;23928;47.562;7.508;2022-12-08T06:18:06;23.70;;;13.13;;
38117;SDS011;23928;47.562;7.508;2022-12-08T06:20:33;25.87;;;13.23;;
38117;SDS011;23928;47.562;7.508;2022-12-08T06:22:59;24.37;;;11.70;;
38117;SDS011;23928;47.562;7.508;2022-12-08T06:25:24;21.23;;;11.20;;
38117;SDS011;23928;47.562;7.508;2022-12-08T06:27:50;23.53;;;11.93;;
38117;SDS011;23928;47.562;7.508;2022-12-08T06:30:16;24.30;;;12.20;;
38117;SDS011;23928;47.562;7.508;2022-12-08T06:32:42;23.87;;;12.17;;
38117;SDS011;23928;47.562;7.508;2022-12-08T06:35:08;30.80;;;15.17;;
38117;SDS011;23928;47.562;7.508;2022-12-08T06:37:34;28.47;;;14.77;;
38117;SDS011;23928;47.562;7.508;2022-12-08T06:40:00;31.43;;;15.07;;
38117;SDS011;23928;47.562;7.508;2022-12-08T06:42:25;34.50;;;14.50;;
38117;SDS011;23928;47.562;7.508;2022-12-08T06:45:11;23.07;;;12.80;;
38117;SDS011;23928;47.562;7.508;2022-12-08T06:47:38;22.73;;;11.70;;
38117;SDS011;23928;47.562;7.508;2022-12-08T06:50:04;21.03;;;11.73;;
38117;SDS011;23928;47.562;7.508;2022-12-08T06:52:31;21.27;;;11.37;;
38117;SDS011;23928;47.562;7.508;2022-12-08T06:54:57;25.20;;;13.27;;
38117;SDS011;23928;47.562;7.508;2022-12-08T06:57:22;20.73;;;11.57;;
38117;SDS011;23928;47.562;7.508;2022-12-08T06:59:48;25.43;;;12.00;;
38117;SDS011;23928;47.562;7.508;2022-12-08T07:02:14;24.97;;;12.20;;
38117;SDS011;23928;47.562;7.508;2022-12-08T07:04:41;24.80;;;12.60;;
38117;SDS011;23928;47.562;7.508;2022-12-08T07:07:06;23.40;;;11.60;;
38117;SDS011;23928;47.562;7.508;2022-12-08T07:09:32;18.03;;;10.70;;
38117;SDS011;23928;47.562;7.508;2022-12-08T07:11:57;21.20;;;11.00;;
38117;SDS011;23928;47.562;7.508;2022-12-08T07:14:23;23.77;;;11.80;;
38117;SDS011;23928;47.562;7.508;2022-12-08T07:16:49;23.10;;;11.40;;
38117;SDS011;23928;47.562;7.508;2022-12-08T07:19:16;21.50;;;10.83;;
38117;SDS011;23928;47.562;7.508;2022-12-08T07:21:42;21.77;;;12.17;;
38117;SDS011;23928;47.562;7.508;2022-12-08T07:24:07;22.73;;;11.07;;
38117;SDS011;23928;47.562;7.508;2022-12-08T07:26:33;23.07;;;12.33;;
38117;SDS011;23928;47.562;7.508;2022-12-08T07:28:59;24.03;;;13.10;;
38117;SDS011;23928;47.562;7.508;2022-12-08T07:31:25;19.07;;;10.83;;
38117;SDS011;23928;47.562;7.508;2022-12-08T07:33:52;22.87;;;11.37;;
38117;SDS011;23928;47.562;7.508;2022-12-08T07:36:19;24.23;;;11.77;;
38117;SDS011;23928;47.562;7.508;2022-12-08T07:38:45;22.40;;;11.60;;
38117;SDS011;23928;47.562;7.508;2022-12-08T07:41:16;16.23;;;9.73;;
38117;SDS011;23928;47.562;7.508;2022-12-08T07:43:43;28.67;;;14.43;;
38117;SDS011;23928;47.562;7.508;2022-12-08T07:46:13;26.20;;;13.30;;
38117;SDS011;23928;47.562;7.508;2022-12-08T07:48:40;21.90;;;11.83;;
38117;SDS011;23928;47.562;7.508;2022-12-08T07:51:06;26.57;;;14.37;;
38117;SDS011;23928;47.562;7.508;2022-12-08T07:53:32;28.67;;;14.73;;
38117;SDS011;23928;47.562;7.508;2022-12-08T07:55:58;28.00;;;13.20;;
38117;SDS011;23928;47.562;7.508;2022-12-08T07:58:23;26.17;;;12.93;;
38117;SDS011;23928;47.562;7.508;2022-12-08T08:00:50;31.40;;;15.80;;
38117;SDS011;23928;47.562;7.508;2022-12-08T08:03:16;33.63;;;15.50;;
38117;SDS011;23928;47.562;7.508;2022-12-08T08:05:42;31.07;;;15.37;;
38117;SDS011;23928;47.562;7.508;2022-12-08T08:08:08;29.50;;;14.17;;
38117;SDS011;23928;47.562;7.508;2022-12-08T08:10:34;32.83;;;14.80;;
38117;SDS011;23928;47.562;7.508;2022-12-08T08:13:00;31.23;;;16.47;;
38117;SDS011;23928;47.562;7.508;2022-12-08T08:15:26;29.23;;;15.97;;
38117;SDS011;23928;47.562;7.508;2022-12-08T08:17:52;27.50;;;14.40;;
38117;SDS011;23928;47.562;7.508;2022-12-08T08:20:18;26.80;;;15.17;;
38117;SDS011;23928;47.562;7.508;2022-12-08T08:22:48;23.03;;;13.70;;
38117;SDS011;23928;47.562;7.508;2022-12-08T08:25:14;30.93;;;15.17;;
38117;SDS011;23928;47.562;7.508;2022-12-08T08:27:40;28.00;;;15.03;;
38117;SDS011;23928;47.562;7.508;2022-12-08T08:30:07;28.63;;;15.67;;
38117;SDS011;23928;47.562;7.508;2022-12-08T08:32:35;25.53;;;13.40;;
38117;SDS011;23928;47.562;7.508;2022-12-08T08:35:01;24.80;;;12.47;;
38117;SDS011;23928;47.562;7.508;2022-12-08T08:37:27;23.47;;;13.40;;
38117;SDS011;23928;47.562;7.508;2022-12-08T08:39:52;27.70;;;15.47;;
38117;SDS011;23928;47.562;7.508;2022-12-08T08:42:18;33.00;;;17.13;;
38117;SDS011;23928;47.562;7.508;2022-12-08T08:44:44;30.53;;;17.47;;
38117;SDS011;23928;47.562;7.508;2022-12-08T08:47:10;30.13;;;17.13;;
38117;SDS011;23928;47.562;7.508;2022-12-08T08:49:36;32.67;;;17.30;;
38117;SDS011;23928;47.562;7.508;2022-12-08T08:52:02;30.93;;;16.67;;
38117;SDS011;23928;47.562;7.508;2022-12-08T08:54:28;29.13;;;16.53;;
38117;SDS011;23928;47.562;7.508;2022-12-08T08:56:55;29.50;;;16.07;;
38117;SDS011;23928;47.562;7.508;2022-12-08T08:59:21;27.73;;;14.93;;
38117;SDS011;23928;47.562;7.508;2022-12-08T09:01:47;36.50;;;15.00;;
38117;SDS011;23928;47.562;7.508;2022-12-08T09:04:12;26.73;;;14.27;;
38117;SDS011;23928;47.562;7.508;2022-12-08T09:06:38;27.37;;;14.77;;
38117;SDS011;23928;47.562;7.508;2022-12-08T09:09:04;25.37;;;15.03;;
38117;SDS011;23928;47.562;7.508;2022-12-08T09:11:30;28.43;;;15.10;;
38117;SDS011;23928;47.562;7.508;2022-12-08T09:13:56;27.50;;;14.77;;
38117;SDS011;23928;47.562;7.508;2022-12-08T09:16:22;31.07;;;16.87;;
38117;SDS011;23928;47.562;7.508;2022-12-08T09:18:48;28.03;;;16.00;;
38117;SDS011;23928;47.562;7.508;2022-12-08T09:21:15;25.23;;;14.43;;
38117;SDS011;23928;47.562;7.508;2022-12-08T09:23:46;28.10;;;16.17;;
38117;SDS011;23928;47.562;7.508;2022-12-08T09:26:15;31.13;;;17.33;;
38117;SDS011;23928;47.562;7.508;2022-12-08T09:28:40;28.07;;;15.30;;
38117;SDS011;23928;47.562;7.508;2022-12-08T09:31:13;25.67;;;14.33;;
38117;SDS011;23928;47.562;7.508;2022-12-08T09:33:40;27.80;;;14.67;;
38117;SDS011;23928;47.562;7.508;2022-12-08T09:36:05;25.33;;;14.20;;
38117;SDS011;23928;47.562;7.508;2022-12-08T09:38:31;27.97;;;14.00;;
38117;SDS011;23928;47.562;7.508;2022-12-08T09:40:57;25.37;;;14.40;;
38117;SDS011;23928;47.562;7.508;2022-12-08T09:45:52;28.10;;;16.53;;
38117;SDS011;23928;47.562;7.508;2022-12-08T09:48:23;28.40;;;16.67;;
38117;SDS011;23928;47.562;7.508;2022-12-08T09:50:56;27.93;;;16.00;;
38117;SDS011;23928;47.562;7.508;2022-12-08T09:53:26;27.70;;;15.93;;
38117;SDS011;23928;47.562;7.508;2022-12-08T09:55:59;30.97;;;17.23;;
38117;SDS011;23928;47.562;7.508;2022-12-08T10:01:21;29.30;;;15.53;;
38117;SDS011;23928;47.562;7.508;2022-12-08T10:03:50;32.70;;;17.50;;
38117;SDS011;23928;47.562;7.508;2022-12-08T10:11:59;25.93;;;15.17;;
38117;SDS011;23928;47.562;7.508;2022-12-08T10:14:41;26.57;;;13.90;;
38117;SDS011;23928;47.562;7.508;2022-12-08T10:17:14;23.63;;;13.83;;
38117;SDS011;23928;47.562;7.508;2022-12-08T10:19:45;26.17;;;14.80;;
38117;SDS011;23928;47.562;7.508;2022-12-08T10:22:22;22.97;;;14.53;;
38117;SDS011;23928;47.562;7.508;2022-12-08T10:24:59;24.10;;;14.10;;
38117;SDS011;23928;47.562;7.508;2022-12-08T10:27:29;23.80;;;13.07;;
38117;SDS011;23928;47.562;7.508;2022-12-08T10:29:59;25.33;;;14.63;;
38117;SDS011;23928;47.562;7.508;2022-12-08T10:32:24;25.13;;;13.97;;
38117;SDS011;23928;47.562;7.508;2022-12-08T10:37:26;27.47;;;14.73;;
38117;SDS011;23928;47.562;7.508;2022-12-08T10:39:57;28.87;;;16.07;;
38117;SDS011;23928;47.562;7.508;2022-12-08T10:42:32;29.30;;;16.73;;
38117;SDS011;23928;47.562;7.508;2022-12-08T10:53:14;42.60;;;20.10;;
38117;SDS011;23928;47.562;7.508;2022-12-08T11:03:50;31.10;;;16.07;;
38117;SDS011;23928;47.562;7.508;2022-12-08T11:07:00;30.67;;;16.97;;
38117;SDS011;23928;47.562;7.508;2022-12-08T11:14:17;29.00;;;17.37;;
38117;SDS011;23928;47.562;7.508;2022-12-08T11:16:46;28.73;;;17.03;;
38117;SDS011;23928;47.562;7.508;2022-12-08T11:19:13;30.60;;;17.17;;
38117;SDS011;23928;47.562;7.508;2022-12-08T11:21:40;30.30;;;17.20;;
38117;SDS011;23928;47.562;7.508;2022-12-08T11:24:16;28.73;;;17.27;;
38117;SDS011;23928;47.562;7.508;2022-12-08T11:26:50;33.03;;;17.57;;
38117;SDS011;23928;47.562;7.508;2022-12-08T11:29:24;29.23;;;16.53;;
38117;SDS011;23928;47.562;7.508;2022-12-08T11:31:52;34.40;;;17.30;;
38117;SDS011;23928;47.562;7.508;2022-12-08T11:34:41;30.43;;;16.83;;
38117;SDS011;23928;47.562;7.508;2022-12-08T11:39:59;32.27;;;18.40;;
38117;SDS011;23928;47.562;7.508;2022-12-08T11:42:31;34.00;;;17.77;;
38117;SDS011;23928;47.562;7.508;2022-12-08T11:45:03;34.47;;;18.83;;
38117;SDS011;23928;47.562;7.508;2022-12-08T11:50:28;39.70;;;20.10;;
38117;SDS011;23928;47.562;7.508;2022-12-08T11:53:08;33.63;;;18.97;;
38117;SDS011;23928;47.562;7.508;2022-12-08T11:55:42;30.60;;;18.30;;
38117;SDS011;23928;47.562;7.508;2022-12-08T12:00:46;33.87;;;18.13;;
38117;SDS011;23928;47.562;7.508;2022-12-08T12:03:19;30.50;;;17.47;;
38117;SDS011;23928;47.562;7.508;2022-12-08T12:08:33;27.87;;;15.57;;
38117;SDS011;23928;47.562;7.508;2022-12-08T12:14:20;32.43;;;17.73;;
38117;SDS011;23928;47.562;7.508;2022-12-08T12:17:00;30.30;;;16.23;;
38117;SDS011;23928;47.562;7.508;2022-12-08T12:19:32;28.73;;;15.33;;
38117;SDS011;23928;47.562;7.508;2022-12-08T12:22:15;29.57;;;15.73;;
38117;SDS011;23928;47.562;7.508;2022-12-08T12:24:44;30.33;;;16.77;;
38117;SDS011;23928;47.562;7.508;2022-12-08T12:29:37;29.90;;;16.20;;
38117;SDS011;23928;47.562;7.508;2022-12-08T12:32:09;34.93;;;18.27;;
38117;SDS011;23928;47.562;7.508;2022-12-08T12:34:37;29.97;;;17.07;;
38117;SDS011;23928;47.562;7.508;2022-12-08T12:37:14;32.07;;;16.93;;
38117;SDS011;23928;47.562;7.508;2022-12-08T12:53:04;32.63;;;16.97;;
38117;SDS011;23928;47.562;7.508;2022-12-08T12:55:54;37.43;;;19.00;;
38117;SDS011;23928;47.562;7.508;2022-12-08T13:03:38;32.73;;;16.30;;
38117;SDS011;23928;47.562;7.508;2022-12-08T13:06:35;30.10;;;16.80;;
38117;SDS011;23928;47.562;7.508;2022-12-08T13:09:15;34.23;;;17.30;;
38117;SDS011;23928;47.562;7.508;2022-12-08T13:11:52;32.30;;;16.43;;
38117;SDS011;23928;47.562;7.508;2022-12-08T13:14:30;32.93;;;17.80;;
38117;SDS011;23928;47.562;7.508;2022-12-08T13:16:59;30.67;;;17.03;;
38117;SDS011;23928;47.562;7.508;2022-12-08T13:19:29;33.80;;;17.77;;
38117;SDS011;23928;47.562;7.508;2022-12-08T13:21:56;32.27;;;16.93;;
38117;SDS011;23928;47.562;7.508;2022-12-08T13:26:49;30.37;;;16.93;;
38117;SDS011;23928;47.562;7.508;2022-12-08T13:29:24;31.67;;;16.50;;
38117;SDS011;23928;47.562;7.508;2022-12-08T13:34:20;27.00;;;14.63;;
38117;SDS011;23928;47.562;7.508;2022-12-08T13:37:08;29.77;;;15.13;;
38117;SDS011;23928;47.562;7.508;2022-12-08T13:40:29;61.57;;;17.07;;
38117;SDS011;23928;47.562;7.508;2022-12-08T13:42:58;45.90;;;17.20;;
38117;SDS011;23928;47.562;7.508;2022-12-08T13:45:50;39.60;;;15.73;;
38117;SDS011;23928;47.562;7.508;2022-12-08T13:48:26;34.43;;;15.97;;
38117;SDS011;23928;47.562;7.508;2022-12-08T13:50:57;34.10;;;16.97;;
38117;SDS011;23928;47.562;7.508;2022-12-08T13:53:59;42.93;;;16.50;;
38117;SDS011;23928;47.562;7.508;2022-12-08T13:56:33;44.00;;;16.83;;
38117;SDS011;23928;47.562;7.508;2022-12-08T13:59:07;31.30;;;16.27;;
38117;SDS011;23928;47.562;7.508;2022-12-08T14:01:35;62.37;;;19.37;;
38117;SDS011;23928;47.562;7.508;2022-12-08T14:04:11;50.43;;;18.63;;
38117;SDS011;23928;47.562;7.508;2022-12-08T14:06:47;52.03;;;17.07;;
38117;SDS011;23928;47.562;7.508;2022-12-08T14:09:15;32.77;;;16.87;;
38117;SDS011;23928;47.562;7.508;2022-12-08T14:11:44;36.70;;;17.33;;
38117;SDS011;23928;47.562;7.508;2022-12-08T14:16:51;45.97;;;16.50;;
38117;SDS011;23928;47.562;7.508;2022-12-08T14:19:21;35.40;;;16.80;;
38117;SDS011;23928;47.562;7.508;2022-12-08T14:21:55;135.70;;;21.50;;
38117;SDS011;23928;47.562;7.508;2022-12-08T14:24:27;28.33;;;15.53;;
38117;SDS011;23928;47.562;7.508;2022-12-08T14:27:01;100.80;;;20.10;;
38117;SDS011;23928;47.562;7.508;2022-12-08T14:32:22;92.80;;;20.40;;
38117;SDS011;23928;47.562;7.508;2022-12-08T14:37:31;142.90;;;22.20;;
38117;SDS011;23928;47.562;7.508;2022-12-08T14:40:01;51.73;;;18.23;;
38117;SDS011;23928;47.562;7.508;2022-12-08T14:42:47;27.53;;;14.73;;
38117;SDS011;23928;47.562;7.508;2022-12-08T14:51:03;80.57;;;21.27;;
38117;SDS011;23928;47.562;7.508;2022-12-08T14:56:34;38.53;;;16.40;;
38117;SDS011;23928;47.562;7.508;2022-12-08T15:01:38;47.33;;;18.30;;
38117;SDS011;23928;47.562;7.508;2022-12-08T15:04:06;85.53;;;20.60;;
38117;SDS011;23928;47.562;7.508;2022-12-08T15:06:32;62.17;;;19.27;;
38117;SDS011;23928;47.562;7.508;2022-12-08T15:08:59;50.23;;;17.83;;
38117;SDS011;23928;47.562;7.508;2022-12-08T15:11:42;35.03;;;16.37;;
38117;SDS011;23928;47.562;7.508;2022-12-08T15:14:25;47.93;;;16.10;;
38117;SDS011;23928;47.562;7.508;2022-12-08T15:17:01;77.77;;;18.67;;
38117;SDS011;23928;47.562;7.508;2022-12-08T15:21:56;37.70;;;14.93;;
38117;SDS011;23928;47.562;7.508;2022-12-08T15:24:24;77.33;;;17.87;;
38117;SDS011;23928;47.562;7.508;2022-12-08T15:26:53;64.33;;;16.57;;
38117;SDS011;23928;47.562;7.508;2022-12-08T15:29:23;43.53;;;15.60;;
38117;SDS011;23928;47.562;7.508;2022-12-08T15:31:55;29.90;;;14.73;;
38117;SDS011;23928;47.562;7.508;2022-12-08T15:34:22;66.67;;;17.10;;
38117;SDS011;23928;47.562;7.508;2022-12-08T15:36:48;28.40;;;14.97;;
38117;SDS011;23928;47.562;7.508;2022-12-08T15:39:32;141.33;;;19.90;;
38117;SDS011;23928;47.562;7.508;2022-12-08T15:41:59;33.40;;;13.97;;
38117;SDS011;23928;47.562;7.508;2022-12-08T15:44:26;51.77;;;15.73;;
38117;SDS011;23928;47.562;7.508;2022-12-08T15:46:53;30.47;;;13.17;;
38117;SDS011;23928;47.562;7.508;2022-12-08T15:49:20;57.23;;;15.43;;
38117;SDS011;23928;47.562;7.508;2022-12-08T15:51:47;28.50;;;13.30;;
38117;SDS011;23928;47.562;7.508;2022-12-08T15:54:13;36.23;;;14.57;;
38117;SDS011;23928;47.562;7.508;2022-12-08T15:56:41;51.70;;;16.67;;
38117;SDS011;23928;47.562;7.508;2022-12-08T15:59:16;45.07;;;16.83;;
38117;SDS011;23928;47.562;7.508;2022-12-08T16:01:43;35.40;;;16.73;;
38117;SDS011;23928;47.562;7.508;2022-12-08T16:04:16;113.23;;;23.40;;
38117;SDS011;23928;47.562;7.508;2022-12-08T16:06:45;53.20;;;18.20;;
38117;SDS011;23928;47.562;7.508;2022-12-08T16:09:32;35.97;;;16.57;;
38117;SDS011;23928;47.562;7.508;2022-12-08T16:12:03;45.30;;;18.20;;
38117;SDS011;23928;47.562;7.508;2022-12-08T16:14:48;101.50;;;21.27;;
38117;SDS011;23928;47.562;7.508;2022-12-08T16:17:17;67.83;;;18.60;;
38117;SDS011;23928;47.562;7.508;2022-12-08T16:19:43;32.87;;;16.10;;
38117;SDS011;23928;47.562;7.508;2022-12-08T16:22:16;78.93;;;18.27;;
38117;SDS011;23928;47.562;7.508;2022-12-08T16:24:43;92.43;;;19.37;;
38117;SDS011;23928;47.562;7.508;2022-12-08T16:27:42;83.67;;;19.33;;
38117;SDS011;23928;47.562;7.508;2022-12-08T16:30:02;136.77;;;21.20;;
38117;SDS011;23928;47.562;7.508;2022-12-08T16:32:30;138.67;;;20.03;;
38117;SDS011;23928;47.562;7.508;2022-12-08T16:34:55;150.73;;;21.17;;
38117;SDS011;23928;47.562;7.508;2022-12-08T16:37:21;112.93;;;18.03;;
38117;SDS011;23928;47.562;7.508;2022-12-08T16:39:49;28.00;;;13.97;;
38117;SDS011;23928;47.562;7.508;2022-12-08T16:42:19;52.90;;;15.40;;
38117;SDS011;23928;47.562;7.508;2022-12-08T16:45:11;42.10;;;14.20;;